createdAt,value
2018-08-23T00:00:33.373Z,25.37
2018-08-23T00:01:33.256Z,25.31
2018-08-23T00:02:33.220Z,25.31
2018-08-23T00:03:33.727Z,25.25
2018-08-23T00:04:33.366Z,25.25
2018-08-23T00:05:33.193Z,25.25
2018-08-23T00:06:33.211Z,25.25
2018-08-23T00:07:33.328Z,25.25
2018-08-23T00:08:33.400Z,25.25
2018-08-23T00:09:33.602Z,25.25
2018-08-23T00:10:33.377Z,25.25
2018-08-23T00:11:33.264Z,25.25
2018-08-23T00:12:33.244Z,25.19
2018-08-23T00:13:33.296Z,25.19
2018-08-23T00:14:33.304Z,25.19
2018-08-23T00:15:33.359Z,25.12
2018-08-23T00:16:33.552Z,25.12
2018-08-23T00:17:33.545Z,25.06
2018-08-23T00:18:33.282Z,25
2018-08-23T00:19:33.376Z,25
2018-08-23T00:20:33.569Z,25
2018-08-23T00:21:33.332Z,25
2018-08-23T00:22:33.296Z,24.94
2018-08-23T00:23:33.699Z,24.94
2018-08-23T00:24:33.335Z,24.87
2018-08-23T00:25:33.247Z,24.87
2018-08-23T00:26:33.407Z,24.81
2018-08-23T00:27:33.415Z,24.81
2018-08-23T00:28:33.349Z,24.81
2018-08-23T00:29:33.301Z,24.75
2018-08-23T00:30:33.417Z,24.75
2018-08-23T00:31:33.401Z,24.75
2018-08-23T00:32:33.262Z,24.69
2018-08-23T00:33:33.499Z,24.69
2018-08-23T00:34:33.447Z,24.75
2018-08-23T00:35:33.263Z,24.69
2018-08-23T00:36:33.232Z,24.69
2018-08-23T00:37:33.329Z,24.63
2018-08-23T00:38:33.262Z,24.63
2018-08-23T00:39:33.395Z,24.63
2018-08-23T00:40:33.271Z,24.56
2018-08-23T00:41:33.410Z,24.56
2018-08-23T00:42:33.312Z,24.56
2018-08-23T00:43:33.306Z,24.56
2018-08-23T00:44:33.266Z,24.56
2018-08-23T00:45:33.245Z,24.5
2018-08-23T00:46:33.545Z,24.5
2018-08-23T00:47:33.295Z,24.56
2018-08-23T00:48:33.257Z,24.5
2018-08-23T00:49:33.273Z,24.5
2018-08-23T00:50:33.318Z,24.5
2018-08-23T00:51:33.260Z,24.5
2018-08-23T00:52:33.290Z,24.44
2018-08-23T00:53:33.294Z,24.5
2018-08-23T00:54:33.274Z,24.5
2018-08-23T00:55:33.279Z,24.5
2018-08-23T00:56:33.323Z,24.5
2018-08-23T00:57:33.353Z,24.5
2018-08-23T00:58:33.302Z,24.5
2018-08-23T00:59:33.307Z,24.5
2018-08-23T01:00:33.360Z,24.44
2018-08-23T01:01:33.354Z,24.5
2018-08-23T01:02:33.268Z,24.44
2018-08-23T01:03:33.274Z,24.44
2018-08-23T01:04:33.312Z,24.44
2018-08-23T01:05:33.305Z,24.44
2018-08-23T01:06:33.456Z,24.44
2018-08-23T01:07:33.267Z,24.44
2018-08-23T01:08:33.295Z,24.44
2018-08-23T01:09:33.325Z,24.37
2018-08-23T01:10:33.280Z,24.44
2018-08-23T01:11:33.414Z,24.44
2018-08-23T01:12:33.337Z,24.44
2018-08-23T01:13:33.343Z,24.44
2018-08-23T01:14:33.304Z,24.44
2018-08-23T01:15:33.313Z,24.44
2018-08-23T01:16:33.338Z,24.44
2018-08-23T01:17:33.468Z,24.37
2018-08-23T01:18:33.407Z,24.37
2018-08-23T01:19:33.628Z,24.37
2018-08-23T01:20:33.347Z,24.37
2018-08-23T01:21:33.453Z,24.37
2018-08-23T01:22:33.348Z,24.37
2018-08-23T01:23:33.345Z,24.37
2018-08-23T01:24:33.476Z,24.31
2018-08-23T01:25:33.455Z,24.31
2018-08-23T01:26:33.407Z,24.31
2018-08-23T01:27:33.314Z,24.25
2018-08-23T01:28:33.315Z,24.25
2018-08-23T01:29:33.327Z,24.25
2018-08-23T01:30:33.343Z,24.25
2018-08-23T01:31:33.411Z,24.19
2018-08-23T01:32:33.327Z,24.19
2018-08-23T01:33:33.386Z,24.25
2018-08-23T01:34:33.312Z,24.19
2018-08-23T01:35:33.474Z,24.12
2018-08-23T01:36:33.378Z,24.12
2018-08-23T01:37:33.376Z,24.12
2018-08-23T01:38:33.425Z,24.06
2018-08-23T01:39:33.443Z,24.06
2018-08-23T01:40:33.428Z,24
2018-08-23T01:41:33.337Z,24
2018-08-23T01:42:33.636Z,23.94
2018-08-23T01:43:33.387Z,23.87
2018-08-23T01:44:33.336Z,23.94
2018-08-23T01:45:33.350Z,23.87
2018-08-23T01:46:33.448Z,23.87
2018-08-23T01:47:33.419Z,23.81
2018-08-23T01:48:33.469Z,23.81
2018-08-23T01:49:33.544Z,23.81
2018-08-23T01:50:33.387Z,23.75
2018-08-23T01:51:33.400Z,23.75
2018-08-23T01:52:33.411Z,23.75
2018-08-23T01:53:33.405Z,23.69
2018-08-23T01:54:33.506Z,23.69
2018-08-23T01:55:33.418Z,23.62
2018-08-23T01:56:33.364Z,23.56
2018-08-23T01:57:33.526Z,23.56
2018-08-23T01:58:33.393Z,23.56
2018-08-23T01:59:33.575Z,23.56
2018-08-23T02:00:33.432Z,23.56
2018-08-23T02:01:33.407Z,23.56
2018-08-23T02:02:33.356Z,23.5
2018-08-23T02:03:33.411Z,23.5
2018-08-23T02:04:33.352Z,23.5
2018-08-23T02:05:33.435Z,23.44
2018-08-23T02:06:33.488Z,23.44
2018-08-23T02:07:33.395Z,23.38
2018-08-23T02:08:33.445Z,23.31
2018-08-23T02:09:33.393Z,23.38
2018-08-23T02:10:33.355Z,23.31
2018-08-23T02:11:33.422Z,23.31
2018-08-23T02:12:33.360Z,23.31
2018-08-23T02:13:33.393Z,23.25
2018-08-23T02:14:33.432Z,23.31
2018-08-23T02:15:33.377Z,23.31
2018-08-23T02:16:33.410Z,23.31
2018-08-23T02:17:33.415Z,23.31
2018-08-23T02:18:33.392Z,23.38
2018-08-23T02:19:33.471Z,23.31
2018-08-23T02:20:33.387Z,23.31
2018-08-23T02:21:33.390Z,23.31
2018-08-23T02:22:33.372Z,23.38
2018-08-23T02:23:33.407Z,23.38
2018-08-23T02:24:33.402Z,23.38
2018-08-23T02:25:33.507Z,23.31
2018-08-23T02:26:33.373Z,23.31
2018-08-23T02:27:33.403Z,23.31
2018-08-23T02:28:33.417Z,23.31
2018-08-23T02:29:33.383Z,23.25
2018-08-23T02:30:33.408Z,23.25
2018-08-23T02:31:33.427Z,23.31
2018-08-23T02:32:33.414Z,23.25
2018-08-23T02:33:33.528Z,23.25
2018-08-23T02:34:33.453Z,23.25
2018-08-23T02:35:33.403Z,23.19
2018-08-23T02:36:33.656Z,23.12
2018-08-23T02:37:33.489Z,23.12
2018-08-23T02:38:33.406Z,23.12
2018-08-23T02:39:33.398Z,23.19
2018-08-23T02:40:33.424Z,23.19
2018-08-23T02:41:33.441Z,23.12
2018-08-23T02:42:33.449Z,23.12
2018-08-23T02:43:33.557Z,23.19
2018-08-23T02:44:33.740Z,23.12
2018-08-23T02:45:33.514Z,23.12
2018-08-23T02:46:34.341Z,23.12
2018-08-23T02:47:33.544Z,23.06
2018-08-23T02:48:33.563Z,23.06
2018-08-23T02:49:33.582Z,23
2018-08-23T02:50:33.772Z,23.06
2018-08-23T02:51:33.593Z,23.06
2018-08-23T02:52:33.510Z,23
2018-08-23T02:53:33.490Z,23.06
2018-08-23T02:54:33.499Z,23.06
2018-08-23T02:55:33.555Z,23
2018-08-23T02:56:33.620Z,23.06
2018-08-23T02:57:33.728Z,23.06
2018-08-23T02:58:33.451Z,23
2018-08-23T02:59:33.568Z,23
2018-08-23T03:00:34.049Z,23
2018-08-23T03:01:33.475Z,23
2018-08-23T03:02:33.605Z,23
2018-08-23T03:03:33.437Z,22.94
2018-08-23T03:04:33.905Z,23
2018-08-23T03:05:33.588Z,22.94
2018-08-23T03:06:33.483Z,22.94
2018-08-23T03:07:33.782Z,22.87
2018-08-23T03:08:33.501Z,22.87
2018-08-23T03:09:33.539Z,22.81
2018-08-23T03:10:33.463Z,22.87
2018-08-23T03:11:33.472Z,22.81
2018-08-23T03:12:33.485Z,22.81
2018-08-23T03:13:33.484Z,22.87
2018-08-23T03:14:33.496Z,22.81
2018-08-23T03:15:33.510Z,22.81
2018-08-23T03:16:33.597Z,22.81
2018-08-23T03:17:33.476Z,22.81
2018-08-23T03:18:33.480Z,22.81
2018-08-23T03:19:33.592Z,22.81
2018-08-23T03:20:33.532Z,22.81
2018-08-23T03:21:33.481Z,22.81
2018-08-23T03:22:33.519Z,22.75
2018-08-23T03:23:33.526Z,22.75
2018-08-23T03:24:33.882Z,22.75
2018-08-23T03:25:33.484Z,22.69
2018-08-23T03:26:33.480Z,22.69
2018-08-23T03:27:33.469Z,22.75
2018-08-23T03:28:33.531Z,22.69
2018-08-23T03:29:33.953Z,22.69
2018-08-23T03:30:33.530Z,22.75
2018-08-23T03:31:33.648Z,22.69
2018-08-23T03:32:33.488Z,22.69
2018-08-23T03:33:33.505Z,22.69
2018-08-23T03:34:33.813Z,22.62
2018-08-23T03:35:33.498Z,22.62
2018-08-23T03:36:33.580Z,22.62
2018-08-23T03:37:33.498Z,22.69
2018-08-23T03:38:33.493Z,22.69
2018-08-23T03:39:33.483Z,22.69
2018-08-23T03:40:33.508Z,22.69
2018-08-23T03:41:33.485Z,22.69
2018-08-23T03:42:33.526Z,22.62
2018-08-23T03:43:33.506Z,22.69
2018-08-23T03:44:33.526Z,22.62
2018-08-23T03:45:33.497Z,22.69
2018-08-23T03:46:33.473Z,22.69
2018-08-23T03:47:33.502Z,22.69
2018-08-23T03:48:33.536Z,22.62
2018-08-23T03:49:33.478Z,22.69
2018-08-23T03:50:33.586Z,22.69
2018-08-23T03:51:33.579Z,22.69
2018-08-23T03:52:34.557Z,22.69
2018-08-23T03:53:33.623Z,22.62
2018-08-23T03:54:33.540Z,22.69
2018-08-23T03:55:33.596Z,22.62
2018-08-23T03:56:33.920Z,22.62
2018-08-23T03:57:33.508Z,22.62
2018-08-23T03:58:33.503Z,22.56
2018-08-23T03:59:33.650Z,22.56
2018-08-23T04:00:33.533Z,22.56
2018-08-23T04:01:33.596Z,22.56
2018-08-23T04:02:33.590Z,22.5
2018-08-23T04:03:33.553Z,22.5
2018-08-23T04:04:33.565Z,22.5
2018-08-23T04:05:33.563Z,22.5
2018-08-23T04:06:33.540Z,22.5
2018-08-23T04:07:33.564Z,22.44
2018-08-23T04:08:33.567Z,22.44
2018-08-23T04:09:33.581Z,22.37
2018-08-23T04:10:33.770Z,22.37
2018-08-23T04:11:33.596Z,22.37
2018-08-23T04:12:33.596Z,22.31
2018-08-23T04:13:33.566Z,22.31
2018-08-23T04:14:33.554Z,22.25
2018-08-23T04:15:33.611Z,22.25
2018-08-23T04:16:33.526Z,22.25
2018-08-23T04:17:33.599Z,22.25
2018-08-23T04:18:33.532Z,22.19
2018-08-23T04:19:33.629Z,22.25
2018-08-23T04:20:33.547Z,22.25
2018-08-23T04:21:33.604Z,22.25
2018-08-23T04:22:33.633Z,22.25
2018-08-23T04:23:33.575Z,22.25
2018-08-23T04:24:33.541Z,22.31
2018-08-23T04:25:33.568Z,22.31
2018-08-23T04:26:33.554Z,22.31
2018-08-23T04:27:34.195Z,22.31
2018-08-23T04:28:33.592Z,22.31
2018-08-23T04:29:33.636Z,22.31
2018-08-23T04:30:33.539Z,22.37
2018-08-23T04:31:33.734Z,22.31
2018-08-23T04:32:33.631Z,22.31
2018-08-23T04:33:33.593Z,22.31
2018-08-23T04:34:33.760Z,22.31
2018-08-23T04:35:33.592Z,22.31
2018-08-23T04:36:33.715Z,22.31
2018-08-23T04:37:33.754Z,22.31
2018-08-23T04:38:33.612Z,22.31
2018-08-23T04:39:33.815Z,22.31
2018-08-23T04:40:33.646Z,22.31
2018-08-23T04:41:33.704Z,22.31
2018-08-23T04:42:33.874Z,22.31
2018-08-23T04:43:33.898Z,22.25
2018-08-23T04:44:33.637Z,22.25
2018-08-23T04:45:33.748Z,22.25
2018-08-23T04:46:33.882Z,22.25
2018-08-23T04:47:34.234Z,22.19
2018-08-23T04:48:33.837Z,22.19
2018-08-23T04:49:33.855Z,22.19
2018-08-23T04:50:33.651Z,22.19
2018-08-23T04:51:33.883Z,22.19
2018-08-23T04:52:33.619Z,22.25
2018-08-23T04:53:33.585Z,22.19
2018-08-23T04:54:33.701Z,22.25
2018-08-23T04:55:33.772Z,22.25
2018-08-23T04:56:33.622Z,22.25
2018-08-23T04:57:33.668Z,22.31
2018-08-23T04:58:33.674Z,22.31
2018-08-23T04:59:33.676Z,22.31
2018-08-23T05:00:33.722Z,22.31
2018-08-23T05:01:33.781Z,22.31
2018-08-23T05:02:33.756Z,22.31
2018-08-23T05:03:33.639Z,22.37
2018-08-23T05:04:34.466Z,22.31
2018-08-23T05:05:33.719Z,22.37
2018-08-23T05:06:33.665Z,22.37
2018-08-23T05:07:33.673Z,22.37
2018-08-23T05:08:34.248Z,22.37
2018-08-23T05:09:33.744Z,22.37
2018-08-23T05:10:33.693Z,22.31
2018-08-23T05:11:33.703Z,22.37
2018-08-23T05:12:33.695Z,22.31
2018-08-23T05:13:33.876Z,22.25
2018-08-23T05:14:33.919Z,22.25
2018-08-23T05:15:33.858Z,22.19
2018-08-23T05:16:33.632Z,22.19
2018-08-23T05:17:33.784Z,22.13
2018-08-23T05:18:33.836Z,22.13
2018-08-23T05:19:34.640Z,22.13
2018-08-23T05:20:33.708Z,22.06
2018-08-23T05:21:34.437Z,22.06
2018-08-23T05:22:33.713Z,22.13
2018-08-23T05:23:33.748Z,22.06
2018-08-23T05:24:33.952Z,22.06
2018-08-23T05:25:33.815Z,22.13
2018-08-23T05:26:33.708Z,22.13
2018-08-23T05:27:33.868Z,22.06
2018-08-23T05:28:33.719Z,22.06
2018-08-23T05:29:33.711Z,22.06
2018-08-23T05:30:33.734Z,22.06
2018-08-23T05:31:34.032Z,22.06
2018-08-23T05:32:33.918Z,22.13
2018-08-23T05:33:33.669Z,22.13
2018-08-23T05:34:33.705Z,22.13
2018-08-23T05:35:34.027Z,22.13
2018-08-23T05:36:33.670Z,22.13
2018-08-23T05:37:34.327Z,22.19
2018-08-23T05:38:33.794Z,22.19
2018-08-23T05:39:33.988Z,22.19
2018-08-23T05:40:33.884Z,22.19
2018-08-23T05:41:33.685Z,22.31
2018-08-23T05:42:33.718Z,22.31
2018-08-23T05:43:34.583Z,22.31
2018-08-23T05:44:33.889Z,22.31
2018-08-23T05:45:33.664Z,22.37
2018-08-23T05:46:33.774Z,22.37
2018-08-23T05:47:34.005Z,22.44
2018-08-23T05:48:34.143Z,22.37
2018-08-23T05:49:33.935Z,22.44
2018-08-23T05:50:34.536Z,22.44
2018-08-23T05:51:33.767Z,22.44
2018-08-23T05:52:33.922Z,22.5
2018-08-23T05:53:33.844Z,22.5
2018-08-23T05:54:34.184Z,22.5
2018-08-23T05:55:34.642Z,22.5
2018-08-23T05:56:33.888Z,22.5
2018-08-23T05:57:33.751Z,22.56
2018-08-23T05:58:33.717Z,22.56
2018-08-23T05:59:34.055Z,22.56
2018-08-23T06:00:33.915Z,22.62
2018-08-23T06:01:33.764Z,22.62
2018-08-23T06:02:33.803Z,22.62
2018-08-23T06:03:33.697Z,22.69
2018-08-23T06:04:33.715Z,22.69
2018-08-23T06:05:33.673Z,22.75
2018-08-23T06:06:33.757Z,22.75
2018-08-23T06:07:34.101Z,22.75
2018-08-23T06:08:33.739Z,22.81
2018-08-23T06:09:33.850Z,22.81
2018-08-23T06:10:33.824Z,22.81
2018-08-23T06:11:33.656Z,22.87
2018-08-23T06:12:33.739Z,22.87
2018-08-23T06:13:33.679Z,22.94
2018-08-23T06:14:33.669Z,22.94
2018-08-23T06:15:33.795Z,22.94
2018-08-23T06:16:33.683Z,22.94
2018-08-23T06:17:33.814Z,23
2018-08-23T06:18:33.856Z,22.94
2018-08-23T06:19:33.728Z,22.94
2018-08-23T06:20:33.702Z,23
2018-08-23T06:21:33.701Z,23
2018-08-23T06:22:33.767Z,23
2018-08-23T06:23:33.753Z,23
2018-08-23T06:24:33.728Z,23.06
2018-08-23T06:25:33.701Z,23.06
2018-08-23T06:26:33.939Z,23.06
2018-08-23T06:27:35.935Z,23.12
2018-08-23T06:28:33.681Z,23.12
2018-08-23T06:29:33.732Z,23.12
2018-08-23T06:30:34.797Z,23.19
2018-08-23T06:31:34.314Z,23.19
2018-08-23T06:32:33.762Z,23.19
2018-08-23T06:33:36.735Z,23.25
2018-08-23T06:34:33.737Z,23.25
2018-08-23T06:35:34.730Z,23.25
2018-08-23T06:36:33.846Z,23.31
2018-08-23T06:37:34.187Z,23.31
2018-08-23T06:38:43.768Z,23.31
2018-08-23T06:39:33.869Z,23.38
2018-08-23T06:40:34.058Z,23.38
2018-08-23T06:41:33.705Z,23.38
2018-08-23T06:42:33.819Z,23.38
2018-08-23T06:43:34.055Z,23.38
2018-08-23T06:44:34.840Z,23.38
2018-08-23T06:45:33.825Z,23.38
2018-08-23T06:46:33.841Z,23.44
2018-08-23T06:47:33.871Z,23.44
2018-08-23T06:48:34.072Z,23.5
2018-08-23T06:49:34.383Z,23.5
2018-08-23T06:50:34.823Z,23.56
2018-08-23T06:51:33.856Z,23.56
2018-08-23T06:52:33.743Z,23.56
2018-08-23T06:53:33.721Z,23.69
2018-08-23T06:54:33.813Z,23.69
2018-08-23T06:55:33.800Z,23.75
2018-08-23T06:56:33.869Z,23.75
2018-08-23T06:57:34.088Z,23.81
2018-08-23T06:58:33.774Z,23.87
2018-08-23T06:59:33.753Z,23.94
2018-08-23T07:00:33.787Z,23.94
2018-08-23T07:01:33.805Z,24
2018-08-23T07:02:33.771Z,24
2018-08-23T07:03:34.083Z,24
2018-08-23T07:04:33.790Z,24.06
2018-08-23T07:05:34.865Z,24.06
2018-08-23T07:06:34.120Z,24.12
2018-08-23T07:07:33.892Z,24.12
2018-08-23T07:08:33.846Z,24.19
2018-08-23T07:09:33.750Z,24.19
2018-08-23T07:10:34.387Z,24.25
2018-08-23T07:11:34.078Z,24.31
2018-08-23T07:12:33.841Z,24.31
2018-08-23T07:13:33.803Z,24.37
2018-08-23T07:14:33.774Z,24.31
2018-08-23T07:15:33.825Z,24.37
2018-08-23T07:16:33.871Z,24.37
2018-08-23T07:17:34.947Z,24.37
2018-08-23T07:18:33.974Z,24.44
2018-08-23T07:19:33.861Z,24.5
2018-08-23T07:20:33.838Z,24.44
2018-08-23T07:21:33.796Z,24.5
2018-08-23T07:22:34.325Z,24.5
2018-08-23T07:23:33.874Z,24.44
2018-08-23T07:24:34.124Z,24.5
2018-08-23T07:25:33.875Z,24.5
2018-08-23T07:26:33.967Z,24.56
2018-08-23T07:27:33.865Z,24.56
2018-08-23T07:28:33.814Z,24.63
2018-08-23T07:29:33.831Z,24.69
2018-08-23T07:30:33.796Z,24.75
2018-08-23T07:31:33.916Z,24.75
2018-08-23T07:32:34.911Z,24.87
2018-08-23T07:33:35.781Z,24.87
2018-08-23T07:34:33.799Z,24.87
2018-08-23T07:35:34.343Z,24.94
2018-08-23T07:36:33.806Z,24.94
2018-08-23T07:37:33.775Z,24.94
2018-08-23T07:38:33.772Z,25
2018-08-23T07:39:36.138Z,25
2018-08-23T07:40:33.812Z,25
2018-08-23T07:41:33.765Z,25.06
2018-08-23T07:42:35.404Z,25.06
2018-08-23T07:43:33.873Z,25.06
2018-08-23T07:44:33.898Z,25.12
2018-08-23T07:45:34.348Z,25.12
2018-08-23T07:46:33.812Z,25.19
2018-08-23T07:47:33.910Z,25.19
2018-08-23T07:48:34.531Z,25.19
2018-08-23T07:49:36.184Z,25.25
2018-08-23T07:50:33.843Z,25.25
2018-08-23T07:51:33.803Z,25.25
2018-08-23T07:52:34.539Z,25.31
2018-08-23T07:53:33.818Z,25.37
2018-08-23T07:54:33.892Z,25.44
2018-08-23T07:55:33.830Z,25.37
2018-08-23T07:56:35.489Z,25.37
2018-08-23T07:57:33.907Z,25.37
2018-08-23T07:58:33.811Z,25.37
2018-08-23T07:59:33.795Z,25.37
2018-08-23T08:00:34.082Z,25.37
2018-08-23T08:01:35.452Z,25.44
2018-08-23T08:02:33.861Z,25.44
2018-08-23T08:03:33.959Z,25.44
2018-08-23T08:04:34.184Z,25.5
2018-08-23T08:05:33.829Z,25.5
2018-08-23T08:06:33.813Z,25.56
2018-08-23T08:07:33.871Z,25.56
2018-08-23T08:08:34.001Z,25.56
2018-08-23T08:09:33.836Z,25.56
2018-08-23T08:10:34.542Z,25.62
2018-08-23T08:11:33.816Z,25.56
2018-08-23T08:12:33.816Z,25.62
2018-08-23T08:13:33.836Z,25.62
2018-08-23T08:14:33.857Z,25.62
2018-08-23T08:15:34.084Z,25.62
2018-08-23T08:16:34.147Z,25.62
2018-08-23T08:17:34.192Z,25.69
2018-08-23T08:18:34.163Z,25.75
2018-08-23T08:19:33.964Z,25.75
2018-08-23T08:20:34.007Z,25.75
2018-08-23T08:21:34.457Z,25.88
2018-08-23T08:22:33.849Z,25.88
2018-08-23T08:23:34.005Z,25.94
2018-08-23T08:24:33.824Z,26
2018-08-23T08:25:34.022Z,26
2018-08-23T08:26:34.050Z,26
2018-08-23T08:27:34.124Z,26
2018-08-23T08:28:34.039Z,26.06
2018-08-23T08:29:34.016Z,26.06
2018-08-23T08:30:34.176Z,26.06
2018-08-23T08:31:34.047Z,26.06
2018-08-23T08:32:34.347Z,26
2018-08-23T08:33:34.207Z,26.06
2018-08-23T08:34:34.571Z,26.06
2018-08-23T08:35:34.160Z,26.06
2018-08-23T08:36:34.169Z,26
2018-08-23T08:37:36.033Z,25.94
2018-08-23T08:38:34.111Z,26
2018-08-23T08:39:34.102Z,26
2018-08-23T08:40:34.090Z,26
2018-08-23T08:41:34.013Z,26
2018-08-23T08:42:34.224Z,26.06
2018-08-23T08:43:34.275Z,26.06
2018-08-23T08:44:33.931Z,26.12
2018-08-23T08:45:34.329Z,26.12
2018-08-23T08:46:34.153Z,26.12
2018-08-23T08:47:34.430Z,26.12
2018-08-23T08:48:34.716Z,26.19
2018-08-23T08:49:34.035Z,26.25
2018-08-23T08:50:35.111Z,26.31
2018-08-23T08:51:35.277Z,26.31
2018-08-23T08:52:34.096Z,26.31
2018-08-23T08:53:34.123Z,26.37
2018-08-23T08:54:34.016Z,26.37
2018-08-23T08:55:34.007Z,26.37
2018-08-23T08:56:33.929Z,26.44
2018-08-23T08:57:34.851Z,26.44
2018-08-23T08:58:34.027Z,26.44
2018-08-23T08:59:34.135Z,26.5
2018-08-23T09:00:34.041Z,26.56
2018-08-23T09:01:34.080Z,26.56
2018-08-23T09:02:33.962Z,26.69
2018-08-23T09:03:33.967Z,26.69
2018-08-23T09:04:34.257Z,26.75
2018-08-23T09:05:34.078Z,26.81
2018-08-23T09:06:34.912Z,26.81
2018-08-23T09:07:33.909Z,26.81
2018-08-23T09:08:33.993Z,26.87
2018-08-23T09:09:34.173Z,26.87
2018-08-23T09:10:33.896Z,26.87
2018-08-23T09:11:34.025Z,26.94
2018-08-23T09:12:33.985Z,26.87
2018-08-23T09:13:33.976Z,26.87
2018-08-23T09:14:34.787Z,26.94
2018-08-23T09:15:35.318Z,26.94
2018-08-23T09:16:34.166Z,26.94
2018-08-23T09:17:33.962Z,26.94
2018-08-23T09:18:34.665Z,26.94
2018-08-23T09:19:34.801Z,27
2018-08-23T09:20:35.083Z,27
2018-08-23T09:21:35.588Z,27
2018-08-23T09:22:33.920Z,27.06
2018-08-23T09:23:34.245Z,27.06
2018-08-23T09:24:34.144Z,27.13
2018-08-23T09:25:34.247Z,27.13
2018-08-23T09:26:34.200Z,27.19
2018-08-23T09:27:34.341Z,27.19
2018-08-23T09:28:34.060Z,27.19
2018-08-23T09:29:34.344Z,27.25
2018-08-23T09:30:34.029Z,27.31
2018-08-23T09:31:33.969Z,27.37
2018-08-23T09:32:33.918Z,27.44
2018-08-23T09:33:34.062Z,27.5
2018-08-23T09:34:33.925Z,27.56
2018-08-23T09:35:34.149Z,27.56
2018-08-23T09:36:34.224Z,27.62
2018-08-23T09:37:34.275Z,27.69
2018-08-23T09:38:34.109Z,27.75
2018-08-23T09:39:34.040Z,27.75
2018-08-23T09:40:34.050Z,27.81
2018-08-23T09:41:34.292Z,27.81
2018-08-23T09:42:34.194Z,27.87
2018-08-23T09:43:34.439Z,27.94
2018-08-23T09:44:34.755Z,27.94
2018-08-23T09:45:34.071Z,28
2018-08-23T09:46:34.212Z,28.06
2018-08-23T09:47:34.117Z,28.06
2018-08-23T09:48:34.282Z,28
2018-08-23T09:49:34.038Z,28.06
2018-08-23T09:50:34.601Z,28.06
2018-08-23T09:51:34.104Z,28.06
2018-08-23T09:52:34.223Z,28.12
2018-08-23T09:53:34.703Z,28.19
2018-08-23T09:54:34.243Z,28.19
2018-08-23T09:55:34.227Z,28.31
2018-08-23T09:56:34.543Z,28.31
2018-08-23T09:57:34.175Z,28.44
2018-08-23T09:58:34.644Z,28.44
2018-08-23T09:59:33.955Z,28.5
2018-08-23T10:00:34.251Z,28.5
2018-08-23T10:01:34.093Z,28.56
2018-08-23T10:02:34.508Z,28.62
2018-08-23T10:03:34.149Z,28.62
2018-08-23T10:04:34.490Z,28.62
2018-08-23T10:05:34.158Z,28.69
2018-08-23T10:06:34.023Z,28.69
2018-08-23T10:07:33.991Z,28.69
2018-08-23T10:08:34.056Z,28.69
2018-08-23T10:09:34.105Z,28.62
2018-08-23T10:10:34.156Z,28.69
2018-08-23T10:11:35.241Z,28.69
2018-08-23T10:12:34.038Z,28.75
2018-08-23T10:13:34.071Z,28.75
2018-08-23T10:14:33.979Z,28.75
2018-08-23T10:15:34.059Z,28.62
2018-08-23T10:16:34.022Z,28.69
2018-08-23T10:17:34.160Z,28.62
2018-08-23T10:18:34.039Z,28.62
2018-08-23T10:19:34.081Z,28.62
2018-08-23T10:20:34.353Z,28.69
2018-08-23T10:21:34.303Z,28.69
2018-08-23T10:22:34.069Z,28.69
2018-08-23T10:23:34.113Z,28.69
2018-08-23T10:24:34.210Z,28.62
2018-08-23T10:25:33.979Z,28.75
2018-08-23T10:26:34.863Z,28.75
2018-08-23T10:27:34.108Z,28.69
2018-08-23T10:28:34.035Z,28.69
2018-08-23T10:29:34.080Z,28.62
2018-08-23T10:30:34.036Z,28.69
2018-08-23T10:31:34.473Z,28.75
2018-08-23T10:32:34.183Z,28.75
2018-08-23T10:33:34.156Z,28.69
2018-08-23T10:34:34.206Z,28.75
2018-08-23T10:35:34.217Z,28.69
2018-08-23T10:36:34.095Z,28.69
2018-08-23T10:37:33.993Z,28.75
2018-08-23T10:38:34.304Z,28.75
2018-08-23T10:39:34.161Z,28.81
2018-08-23T10:40:34.112Z,28.81
2018-08-23T10:41:34.262Z,28.87
2018-08-23T10:42:34.450Z,28.87
2018-08-23T10:43:34.107Z,28.94
2018-08-23T10:44:34.539Z,29
2018-08-23T10:45:34.971Z,29
2018-08-23T10:46:34.173Z,29.06
2018-08-23T10:47:34.034Z,29.12
2018-08-23T10:48:34.619Z,29.12
2018-08-23T10:49:34.245Z,29.19
2018-08-23T10:50:34.508Z,29.25
2018-08-23T10:51:34.150Z,29.31
2018-08-23T10:52:34.010Z,29.44
2018-08-23T10:53:34.185Z,29.44
2018-08-23T10:54:35.243Z,29.5
2018-08-23T10:55:34.114Z,29.56
2018-08-23T10:56:34.653Z,29.63
2018-08-23T10:57:34.139Z,29.63
2018-08-23T10:58:34.155Z,29.56
2018-08-23T10:59:34.236Z,29.56
2018-08-23T11:00:34.455Z,29.56
2018-08-23T11:01:34.165Z,29.63
2018-08-23T11:02:34.115Z,29.69
2018-08-23T11:03:34.842Z,29.63
2018-08-23T11:04:34.296Z,29.63
2018-08-23T11:05:34.278Z,29.63
2018-08-23T11:06:34.148Z,29.56
2018-08-23T11:07:34.094Z,29.56
2018-08-23T11:08:34.202Z,29.63
2018-08-23T11:09:34.433Z,29.56
2018-08-23T11:10:34.080Z,29.56
2018-08-23T11:11:34.231Z,29.63
2018-08-23T11:12:34.129Z,29.56
2018-08-23T11:13:34.116Z,29.63
2018-08-23T11:14:34.630Z,29.63
2018-08-23T11:15:34.124Z,29.69
2018-08-23T11:16:34.701Z,29.69
2018-08-23T11:17:34.570Z,29.75
2018-08-23T11:18:34.108Z,29.81
2018-08-23T11:19:34.068Z,29.81
2018-08-23T11:20:34.287Z,29.87
2018-08-23T11:21:34.083Z,29.94
2018-08-23T11:22:34.228Z,30
2018-08-23T11:23:34.438Z,30.12
2018-08-23T11:24:34.111Z,30.19
2018-08-23T11:25:34.323Z,30.19
2018-08-23T11:26:34.260Z,30.25
2018-08-23T11:27:34.210Z,30.25
2018-08-23T11:28:34.516Z,30.12
2018-08-23T11:29:35.104Z,30.19
2018-08-23T11:30:34.186Z,30.25
2018-08-23T11:31:34.089Z,30.19
2018-08-23T11:32:34.220Z,30.31
2018-08-23T11:33:34.288Z,30.37
2018-08-23T11:34:34.077Z,30.44
2018-08-23T11:35:34.227Z,30.5
2018-08-23T11:36:34.309Z,30.62
2018-08-23T11:37:34.085Z,30.62
2018-08-23T11:38:34.223Z,30.69
2018-08-23T11:39:34.223Z,30.69
2018-08-23T11:40:34.085Z,30.69
2018-08-23T11:41:34.083Z,30.75
2018-08-23T11:42:34.594Z,30.75
2018-08-23T11:43:34.112Z,30.69
2018-08-23T11:44:34.256Z,30.69
2018-08-23T11:45:34.150Z,30.69
2018-08-23T11:46:34.378Z,30.69
2018-08-23T11:47:34.287Z,30.56
2018-08-23T11:48:34.307Z,30.62
2018-08-23T11:49:34.150Z,30.56
2018-08-23T11:50:34.186Z,30.62
2018-08-23T11:51:34.354Z,30.75
2018-08-23T11:52:34.253Z,30.62
2018-08-23T11:53:37.358Z,30.62
2018-08-23T11:54:34.135Z,30.69
2018-08-23T11:55:34.120Z,30.75
2018-08-23T11:56:34.325Z,30.75
2018-08-23T11:57:34.292Z,30.81
2018-08-23T11:58:34.233Z,30.88
2018-08-23T11:59:34.136Z,30.94
2018-08-23T12:00:34.237Z,31
2018-08-23T12:01:34.198Z,30.94
2018-08-23T12:02:34.213Z,31
2018-08-23T12:03:34.216Z,31
2018-08-23T12:04:34.165Z,30.94
2018-08-23T12:05:34.323Z,31
2018-08-23T12:06:35.157Z,31
2018-08-23T12:07:34.322Z,31.06
2018-08-23T12:08:34.224Z,31.12
2018-08-23T12:09:34.130Z,31.19
2018-08-23T12:10:34.144Z,31.12
2018-08-23T12:11:34.338Z,30.94
2018-08-23T12:12:34.542Z,30.88
2018-08-23T12:13:34.702Z,30.94
2018-08-23T12:14:34.163Z,31
2018-08-23T12:15:35.067Z,31.12
2018-08-23T12:16:34.230Z,31.19
2018-08-23T12:17:34.417Z,31.25
2018-08-23T12:18:34.593Z,31.25
2018-08-23T12:19:34.165Z,31.19
2018-08-23T12:20:34.320Z,31.19
2018-08-23T12:21:34.334Z,31.19
2018-08-23T12:22:34.371Z,31.12
2018-08-23T12:23:34.324Z,31.12
2018-08-23T12:24:34.361Z,31
2018-08-23T12:25:34.459Z,31
2018-08-23T12:26:34.545Z,30.88
2018-08-23T12:27:34.224Z,30.88
2018-08-23T12:28:34.171Z,30.88
2018-08-23T12:29:35.453Z,30.94
2018-08-23T12:30:36.757Z,31
2018-08-23T12:31:36.766Z,31.06
2018-08-23T12:32:34.284Z,31.19
2018-08-23T12:33:34.851Z,31.25
2018-08-23T12:34:35.173Z,31.25
2018-08-23T12:35:34.215Z,31.25
2018-08-23T12:36:34.720Z,31.25
2018-08-23T12:37:34.708Z,31.31
2018-08-23T12:38:34.420Z,31.37
2018-08-23T12:39:34.243Z,31.44
2018-08-23T12:40:34.189Z,31.5
2018-08-23T12:41:34.228Z,31.62
2018-08-23T12:42:35.204Z,31.56
2018-08-23T12:43:35.005Z,31.56
2018-08-23T12:44:34.462Z,31.62
2018-08-23T12:45:34.654Z,31.56
2018-08-23T12:46:35.269Z,31.5
2018-08-23T12:47:34.265Z,31.56
2018-08-23T12:48:35.311Z,31.62
2018-08-23T12:49:34.607Z,31.69
2018-08-23T12:50:34.297Z,31.75
2018-08-23T12:51:34.208Z,31.81
2018-08-23T12:52:34.234Z,31.87
2018-08-23T12:53:35.470Z,31.81
2018-08-23T12:54:34.348Z,31.87
2018-08-23T12:55:34.275Z,31.87
2018-08-23T12:56:34.340Z,31.87
2018-08-23T12:57:34.208Z,31.87
2018-08-23T12:58:34.500Z,31.94
2018-08-23T12:59:35.128Z,32